createdAt,value
2022-11-30T00:01:30.365Z,4.45
2022-11-30T00:03:58.052Z,4.44
2022-11-30T00:06:25.960Z,4.46
2022-11-30T00:08:55.384Z,4.44
2022-11-30T00:11:24.605Z,4.45
2022-11-30T00:13:52.076Z,4.43
2022-11-30T00:16:19.638Z,4.44
2022-11-30T00:18:46.941Z,4.43
2022-11-30T00:21:15.184Z,4.43
2022-11-30T00:23:44.293Z,4.44
2022-11-30T00:26:14.351Z,4.42
2022-11-30T00:28:42.428Z,4.40
2022-11-30T00:31:12.856Z,4.40
2022-11-30T00:33:40.355Z,4.40
2022-11-30T00:36:10.864Z,4.39
2022-11-30T00:38:38.065Z,4.37
2022-11-30T00:41:05.582Z,4.37
2022-11-30T00:43:33.054Z,4.37
2022-11-30T00:46:00.150Z,4.38
2022-11-30T00:48:27.399Z,4.37
2022-11-30T00:50:54.515Z,4.34
2022-11-30T00:53:22.045Z,4.33
2022-11-30T00:55:49.522Z,4.35
2022-11-30T00:58:17.274Z,4.35
2022-11-30T01:00:44.714Z,4.33
2022-11-30T01:03:13.123Z,4.35
2022-11-30T01:05:40.826Z,4.35
2022-11-30T01:08:10.658Z,4.36
2022-11-30T01:10:39.622Z,4.34
2022-11-30T01:13:07.727Z,4.38
2022-11-30T01:15:40.472Z,4.41
2022-11-30T01:18:07.678Z,4.41
2022-11-30T01:20:35.170Z,4.39
2022-11-30T01:23:02.601Z,4.40
2022-11-30T01:25:31.244Z,4.39
2022-11-30T01:27:58.510Z,4.39
2022-11-30T01:30:25.733Z,4.38
2022-11-30T01:32:52.981Z,4.37
2022-11-30T01:35:19.984Z,4.38
2022-11-30T01:37:47.101Z,4.38
2022-11-30T01:40:14.614Z,4.37
2022-11-30T01:42:48.040Z,4.37
2022-11-30T01:45:15.501Z,4.38
2022-11-30T01:47:48.352Z,4.36
2022-11-30T01:50:26.320Z,4.37
2022-11-30T01:52:57.393Z,4.35
2022-11-30T01:55:38.007Z,4.36
2022-11-30T01:58:12.472Z,4.35
2022-11-30T02:00:47.242Z,4.35
2022-11-30T02:03:32.752Z,4.38
2022-11-30T02:06:01.465Z,4.39
2022-11-30T02:08:30.005Z,4.39
2022-11-30T02:11:00.497Z,4.40
2022-11-30T02:13:52.075Z,4.38
2022-11-30T02:16:53.245Z,4.34
2022-11-30T02:19:23.596Z,4.38
2022-11-30T02:22:21.207Z,4.39
2022-11-30T02:25:01.561Z,4.40
2022-11-30T02:27:58.936Z,4.38
2022-11-30T02:30:26.490Z,4.38
2022-11-30T02:33:06.220Z,4.38
2022-11-30T02:35:36.904Z,4.39
2022-11-30T02:38:05.203Z,4.40
2022-11-30T02:40:32.936Z,4.42
2022-11-30T02:43:04.576Z,4.39
2022-11-30T02:45:36.408Z,4.43
2022-11-30T02:48:12.444Z,4.43
2022-11-30T02:50:53.161Z,4.42
2022-11-30T02:53:21.284Z,4.41
2022-11-30T02:55:48.638Z,4.41
2022-11-30T02:58:17.583Z,4.41
2022-11-30T03:00:45.952Z,4.41
2022-11-30T03:03:13.275Z,4.41
2022-11-30T03:05:40.387Z,4.38
2022-11-30T03:08:07.974Z,4.40
2022-11-30T03:10:35.051Z,4.38
2022-11-30T03:13:02.249Z,4.36
2022-11-30T03:15:29.211Z,4.35
2022-11-30T03:17:56.603Z,4.32
2022-11-30T03:20:25.157Z,4.32
2022-11-30T03:22:52.317Z,4.34
2022-11-30T03:25:19.640Z,4.33
2022-11-30T03:27:46.618Z,4.31
2022-11-30T03:30:13.780Z,4.30
2022-11-30T03:32:40.874Z,4.31
2022-11-30T03:35:08.385Z,4.32
2022-11-30T03:37:35.562Z,4.32
2022-11-30T03:40:03.680Z,4.33
2022-11-30T03:42:30.842Z,4.34
2022-11-30T03:44:57.921Z,4.34
2022-11-30T03:47:25.014Z,4.32
2022-11-30T03:49:52.043Z,4.33
2022-11-30T03:52:19.163Z,4.31
2022-11-30T03:54:46.724Z,4.32
2022-11-30T03:57:14.102Z,4.32
2022-11-30T03:59:41.129Z,4.32
2022-11-30T04:02:08.285Z,4.31
2022-11-30T04:04:35.479Z,4.31
2022-11-30T04:07:02.602Z,4.31
2022-11-30T04:09:29.614Z,4.33
2022-11-30T04:11:56.740Z,4.34
2022-11-30T04:14:23.751Z,4.33
2022-11-30T04:16:50.835Z,4.34
2022-11-30T04:19:17.874Z,4.33
2022-11-30T04:21:45.103Z,4.32
2022-11-30T04:24:12.808Z,4.37
2022-11-30T04:26:39.973Z,4.35
2022-11-30T04:29:07.050Z,4.37
2022-11-30T04:31:34.787Z,4.39
2022-11-30T04:34:01.936Z,4.39
2022-11-30T04:36:29.000Z,4.38
2022-11-30T04:38:56.108Z,4.40
2022-11-30T04:41:23.841Z,4.40
2022-11-30T04:43:50.833Z,4.40
2022-11-30T04:46:18.052Z,4.41
2022-11-30T04:48:45.279Z,4.39
2022-11-30T04:51:12.676Z,4.41
2022-11-30T04:53:40.081Z,4.41
2022-11-30T04:56:11.793Z,4.40
2022-11-30T04:58:40.253Z,4.42
2022-11-30T05:01:07.868Z,4.42
2022-11-30T05:03:35.444Z,4.44
2022-11-30T05:06:03.385Z,4.42
2022-11-30T05:08:31.213Z,4.41
2022-11-30T05:10:58.836Z,4.43
2022-11-30T05:13:26.703Z,4.42
2022-11-30T05:15:54.286Z,4.41
2022-11-30T05:18:21.771Z,4.43
2022-11-30T05:20:50.330Z,4.43
2022-11-30T05:23:18.259Z,4.45
2022-11-30T05:25:46.760Z,4.45
2022-11-30T05:28:14.315Z,4.47
2022-11-30T05:30:42.806Z,4.46
2022-11-30T05:33:10.498Z,4.46
2022-11-30T05:35:37.638Z,4.46
2022-11-30T05:38:05.964Z,4.46
2022-11-30T05:40:33.793Z,4.47
2022-11-30T05:43:02.521Z,4.48
2022-11-30T05:45:30.495Z,4.47
2022-11-30T05:47:57.727Z,4.46
2022-11-30T05:50:24.885Z,4.48
2022-11-30T05:53:01.074Z,4.50
2022-11-30T05:55:29.943Z,4.47
2022-11-30T05:57:57.009Z,4.45
2022-11-30T06:00:24.232Z,4.46
2022-11-30T06:03:00.812Z,4.47
2022-11-30T06:05:28.416Z,4.46
2022-11-30T06:07:55.920Z,4.43
2022-11-30T06:10:25.444Z,4.48
2022-11-30T06:12:52.624Z,4.46
2022-11-30T06:15:19.610Z,4.47
2022-11-30T06:17:46.746Z,4.45
2022-11-30T06:20:14.376Z,4.46
2022-11-30T06:22:45.303Z,4.46
2022-11-30T06:25:12.489Z,4.47
2022-11-30T06:27:39.606Z,4.46
2022-11-30T06:30:07.195Z,4.47
2022-11-30T06:32:34.236Z,4.44
2022-11-30T06:35:01.400Z,4.43
2022-11-30T06:37:28.418Z,4.45
2022-11-30T06:40:06.658Z,4.44
2022-11-30T06:42:35.009Z,4.45
2022-11-30T06:45:02.435Z,4.45
2022-11-30T06:47:29.576Z,4.48
2022-11-30T06:49:56.725Z,4.50
2022-11-30T06:52:23.883Z,4.51
2022-11-30T06:54:51.285Z,4.52
2022-11-30T06:57:18.644Z,4.81
2022-11-30T06:59:46.777Z,4.96
2022-11-30T07:02:18.514Z,4.97
2022-11-30T07:04:46.557Z,4.91
2022-11-30T07:07:14.480Z,4.92
2022-11-30T07:09:41.896Z,4.93
2022-11-30T07:12:09.693Z,4.96
2022-11-30T07:14:37.143Z,4.95
2022-11-30T07:17:04.927Z,4.96
2022-11-30T07:19:34.688Z,4.98
2022-11-30T07:22:02.481Z,4.99
2022-11-30T07:24:48.784Z,5.00
2022-11-30T07:27:16.192Z,5.00
2022-11-30T07:29:43.587Z,4.98
2022-11-30T07:32:10.963Z,4.97
2022-11-30T07:34:38.359Z,5.00
2022-11-30T07:37:05.581Z,5.02
2022-11-30T07:39:33.192Z,5.07
2022-11-30T07:42:00.660Z,5.09
2022-11-30T07:44:28.101Z,5.09
2022-11-30T07:46:55.324Z,5.07
2022-11-30T07:49:22.653Z,5.10
2022-11-30T07:51:49.929Z,5.12
2022-11-30T07:54:17.465Z,5.12
2022-11-30T07:56:44.810Z,5.22
2022-11-30T07:59:12.087Z,5.16
2022-11-30T08:01:39.428Z,5.15
2022-11-30T08:04:14.143Z,5.16
2022-11-30T08:06:41.605Z,5.20
2022-11-30T08:09:15.247Z,5.22
2022-11-30T08:11:45.161Z,5.26
2022-11-30T08:14:13.859Z,5.30
2022-11-30T08:16:43.778Z,5.34
2022-11-30T08:19:11.080Z,5.32
2022-11-30T08:21:38.405Z,5.34
2022-11-30T08:24:06.124Z,5.32
2022-11-30T08:26:34.922Z,5.37
2022-11-30T08:29:02.554Z,5.36
2022-11-30T08:31:35.738Z,5.41
2022-11-30T08:34:06.339Z,5.37
2022-11-30T08:36:34.134Z,5.42
2022-11-30T08:39:04.557Z,5.44
2022-11-30T08:41:35.699Z,5.41
2022-11-30T08:44:03.268Z,5.44
2022-11-30T08:47:00.660Z,5.48
2022-11-30T08:49:22.023Z,5.43
2022-11-30T08:54:42.671Z,5.45
2022-11-30T08:57:10.085Z,5.46
2022-11-30T08:59:37.572Z,5.47
2022-11-30T09:02:04.860Z,5.46
2022-11-30T09:04:32.097Z,5.49
2022-11-30T09:07:01.166Z,5.45
2022-11-30T09:09:30.182Z,5.50
2022-11-30T09:11:57.658Z,5.60
2022-11-30T09:14:24.863Z,5.63
2022-11-30T09:16:53.823Z,5.61
2022-11-30T09:19:21.409Z,5.64
2022-11-30T09:21:52.032Z,5.63
2022-11-30T09:24:21.373Z,5.66
2022-11-30T09:26:48.638Z,5.68
2022-11-30T09:29:15.925Z,5.68
2022-11-30T09:31:43.223Z,5.70
2022-11-30T09:34:12.325Z,5.71
2022-11-30T09:36:39.733Z,5.70
2022-11-30T09:39:07.114Z,5.69
2022-11-30T09:41:34.635Z,5.68
2022-11-30T09:44:24.836Z,5.69
2022-11-30T09:47:21.523Z,5.69
2022-11-30T09:49:49.112Z,5.68
2022-11-30T09:52:31.205Z,5.75
2022-11-30T09:55:03.671Z,5.74
2022-11-30T09:57:38.323Z,5.72
2022-11-30T10:00:12.742Z,5.74
2022-11-30T10:02:40.252Z,5.73
2022-11-30T10:05:43.034Z,5.75
2022-11-30T10:08:10.965Z,5.72
2022-11-30T10:11:01.693Z,5.75
2022-11-30T10:13:47.785Z,5.74
2022-11-30T10:16:35.432Z,5.74
2022-11-30T10:19:23.856Z,5.77
2022-11-30T10:22:09.945Z,5.73
2022-11-30T10:24:58.303Z,5.73
2022-11-30T10:27:43.687Z,5.75
2022-11-30T10:30:18.403Z,5.74
2022-11-30T10:32:51.583Z,5.74
2022-11-30T10:35:37.085Z,5.75
2022-11-30T10:38:15.613Z,5.73
2022-11-30T10:41:03.807Z,5.71
2022-11-30T10:43:51.248Z,5.75
2022-11-30T10:46:34.221Z,5.73
2022-11-30T10:49:11.654Z,5.74
2022-11-30T10:51:42.494Z,5.74
2022-11-30T10:54:21.158Z,5.76
2022-11-30T10:56:48.735Z,5.71
2022-11-30T10:59:38.888Z,5.73
2022-11-30T11:02:40.141Z,5.75
2022-11-30T11:05:19.528Z,5.74
2022-11-30T11:08:07.151Z,5.78
2022-11-30T11:10:47.775Z,5.76
2022-11-30T11:13:39.167Z,5.79
2022-11-30T11:16:12.367Z,5.81
2022-11-30T11:19:02.455Z,5.81
2022-11-30T11:21:29.815Z,5.82
2022-11-30T11:23:58.667Z,5.84
2022-11-30T11:26:28.045Z,5.85
2022-11-30T11:28:59.724Z,5.87
2022-11-30T11:31:44.445Z,5.89
2022-11-30T11:34:26.430Z,5.89
2022-11-30T11:37:17.322Z,5.90
2022-11-30T11:39:55.063Z,5.92
2022-11-30T11:42:23.555Z,5.91
2022-11-30T11:44:57.049Z,5.96
2022-11-30T11:47:40.474Z,5.96
2022-11-30T11:50:13.796Z,5.99
2022-11-30T11:52:40.992Z,6.01
2022-11-30T11:55:19.977Z,6.08
2022-11-30T11:57:54.412Z,6.03
2022-11-30T12:00:25.588Z,6.08
2022-11-30T12:02:58.671Z,6.09
2022-11-30T12:05:34.687Z,6.09
2022-11-30T12:08:19.746Z,6.09
2022-11-30T12:10:54.724Z,6.10
2022-11-30T12:13:33.379Z,6.10
2022-11-30T12:16:14.495Z,6.10
2022-11-30T12:18:57.878Z,6.07
2022-11-30T12:21:28.105Z,6.05
2022-11-30T12:24:14.129Z,6.07
2022-11-30T12:26:47.559Z,6.09
2022-11-30T12:29:56.942Z,6.11
2022-11-30T12:32:33.888Z,6.10
2022-11-30T12:35:19.894Z,6.10
2022-11-30T12:37:52.247Z,6.15
2022-11-30T12:40:41.149Z,6.11
2022-11-30T12:43:20.643Z,6.11
2022-11-30T12:45:48.834Z,6.11
2022-11-30T12:48:35.247Z,6.11
2022-11-30T12:51:26.430Z,6.08
2022-11-30T12:54:21.771Z,6.07
2022-11-30T12:57:13.155Z,6.06
2022-11-30T13:00:08.294Z,6.05
2022-11-30T13:02:55.945Z,6.06
2022-11-30T13:05:38.420Z,6.05
2022-11-30T13:08:17.472Z,6.02
2022-11-30T13:10:47.663Z,6.05
2022-11-30T13:13:27.212Z,6.03
2022-11-30T13:15:55.530Z,6.04
2022-11-30T13:18:24.160Z,6.00
2022-11-30T13:21:15.935Z,5.99
2022-11-30T13:24:00.139Z,6.01
2022-11-30T13:26:30.366Z,6.01
2022-11-30T13:29:19.622Z,6.00
2022-11-30T13:31:56.349Z,5.97
2022-11-30T13:34:26.578Z,6.02
2022-11-30T13:37:06.332Z,6.00
2022-11-30T13:39:57.324Z,6.00
2022-11-30T13:42:30.450Z,6.02
2022-11-30T13:45:14.200Z,6.00
2022-11-30T13:47:48.540Z,5.97
2022-11-30T13:50:39.938Z,5.99
2022-11-30T13:53:19.702Z,6.00
2022-11-30T13:55:49.535Z,6.02
2022-11-30T13:58:20.037Z,6.02
2022-11-30T14:01:03.004Z,6.00
2022-11-30T14:03:32.844Z,5.99
2022-11-30T14:06:02.137Z,5.99
2022-11-30T14:08:38.607Z,6.02
2022-11-30T14:11:44.385Z,6.00
2022-11-30T14:14:47.423Z,5.95
2022-11-30T14:17:21.572Z,5.99
2022-11-30T14:19:52.333Z,5.95
2022-11-30T14:22:20.330Z,5.92
2022-11-30T14:24:49.950Z,5.91
2022-11-30T14:27:29.694Z,5.91
2022-11-30T14:30:02.350Z,5.90
2022-11-30T14:32:35.686Z,5.91
2022-11-30T14:35:11.964Z,5.93
2022-11-30T14:37:47.009Z,5.93
2022-11-30T14:40:19.013Z,5.92
2022-11-30T14:42:50.777Z,5.88
2022-11-30T14:45:29.648Z,5.87
2022-11-30T14:48:15.942Z,5.89
2022-11-30T14:50:47.406Z,5.89
2022-11-30T14:53:43.827Z,5.93
2022-11-30T14:56:27.088Z,5.93
2022-11-30T14:59:01.205Z,5.92
2022-11-30T15:01:32.167Z,5.91
2022-11-30T15:04:10.682Z,5.91
2022-11-30T15:06:39.306Z,5.92
2022-11-30T15:09:16.925Z,5.92
2022-11-30T15:11:47.244Z,5.90
2022-11-30T15:14:14.923Z,5.90
2022-11-30T15:16:53.212Z,5.88
2022-11-30T15:19:29.183Z,5.87
2022-11-30T15:21:58.167Z,5.86
2022-11-30T15:24:27.246Z,5.86
2022-11-30T15:27:15.377Z,5.88
2022-11-30T15:29:58.160Z,5.85
2022-11-30T15:32:26.333Z,5.80
2022-11-30T15:34:58.250Z,5.82
2022-11-30T15:37:32.835Z,5.83
2022-11-30T15:40:02.187Z,5.85
2022-11-30T15:42:39.662Z,5.80
2022-11-30T15:45:35.422Z,5.79
2022-11-30T15:48:03.922Z,5.79
2022-11-30T15:50:37.802Z,5.79
2022-11-30T15:53:28.184Z,5.75
2022-11-30T15:56:05.343Z,5.72
2022-11-30T15:58:47.421Z,5.75
2022-11-30T16:01:26.529Z,5.75
2022-11-30T16:03:56.365Z,5.75
2022-11-30T16:06:24.319Z,5.76
2022-11-30T16:08:52.979Z,5.76
2022-11-30T16:11:21.036Z,5.72
2022-11-30T16:13:48.669Z,5.74
2022-11-30T16:16:22.263Z,5.75
2022-11-30T16:18:50.502Z,5.73
2022-11-30T16:21:20.514Z,5.73
2022-11-30T16:23:48.663Z,5.70
2022-11-30T16:29:05.692Z,5.67
2022-11-30T16:31:33.048Z,5.65
2022-11-30T16:34:00.234Z,5.67
2022-11-30T16:36:27.330Z,5.63
2022-11-30T16:38:54.612Z,5.63
2022-11-30T16:41:27.492Z,5.63
2022-11-30T16:43:56.411Z,5.63
2022-11-30T16:46:25.812Z,5.62
2022-11-30T16:48:53.669Z,5.63
2022-11-30T16:51:25.218Z,5.64
2022-11-30T16:53:52.492Z,5.61
2022-11-30T16:56:20.271Z,5.62
2022-11-30T16:58:47.899Z,5.60
2022-11-30T17:01:21.810Z,5.57
2022-11-30T17:03:51.497Z,5.54
2022-11-30T17:06:24.142Z,5.54
2022-11-30T17:08:54.755Z,5.55
2022-11-30T17:11:29.237Z,5.52
2022-11-30T17:13:56.857Z,5.52
2022-11-30T17:16:24.133Z,5.50
2022-11-30T17:18:51.261Z,5.47
2022-11-30T17:21:23.595Z,5.49
2022-11-30T17:23:50.737Z,5.46
2022-11-30T17:26:18.056Z,5.46
2022-11-30T17:28:45.261Z,5.45
2022-11-30T17:31:15.646Z,5.41
2022-11-30T17:33:47.935Z,5.40
2022-11-30T17:36:17.039Z,5.43
2022-11-30T17:38:44.384Z,5.42
2022-11-30T17:41:19.559Z,5.42
2022-11-30T17:43:48.077Z,5.38
2022-11-30T17:46:17.753Z,5.39
2022-11-30T17:48:45.321Z,5.37
2022-11-30T17:51:12.876Z,5.36
2022-11-30T17:53:41.965Z,5.33
2022-11-30T17:56:11.791Z,5.30
2022-11-30T17:58:43.757Z,5.33
2022-11-30T18:01:23.680Z,5.40
2022-11-30T18:03:52.222Z,5.41
2022-11-30T18:06:20.299Z,5.36
2022-11-30T18:08:48.497Z,5.38
2022-11-30T18:11:20.444Z,5.36
2022-11-30T18:13:53.621Z,5.37
2022-11-30T18:16:26.852Z,5.35
2022-11-30T18:18:56.835Z,5.31
2022-11-30T18:21:25.972Z,5.31
2022-11-30T18:23:53.965Z,5.30
2022-11-30T18:26:24.554Z,5.26
2022-11-30T18:28:54.005Z,5.24
2022-11-30T18:31:21.324Z,5.24
2022-11-30T18:33:49.065Z,5.24
2022-11-30T18:36:16.447Z,5.21
2022-11-30T18:38:44.316Z,5.21
2022-11-30T18:41:11.926Z,5.23
2022-11-30T18:43:39.252Z,5.19
2022-11-30T18:46:08.784Z,5.20
2022-11-30T18:48:37.216Z,5.23
2022-11-30T18:51:13.218Z,5.22
2022-11-30T18:53:40.821Z,5.21
2022-11-30T18:56:10.517Z,5.21
2022-11-30T18:58:37.604Z,5.21
2022-11-30T19:01:10.663Z,5.16
2022-11-30T19:03:37.982Z,5.26
2022-11-30T19:06:07.111Z,5.18
2022-11-30T19:08:35.340Z,5.21
2022-11-30T19:11:07.455Z,5.18
2022-11-30T19:13:34.674Z,5.18
2022-11-30T19:16:07.578Z,5.18
2022-11-30T19:18:34.895Z,5.18
2022-11-30T19:21:02.149Z,5.16
2022-11-30T19:23:29.232Z,5.13
2022-11-30T19:26:01.054Z,5.15
2022-11-30T19:28:32.437Z,5.17
2022-11-30T19:31:00.406Z,5.15
2022-11-30T19:33:28.199Z,5.10
2022-11-30T19:36:01.589Z,5.10
2022-11-30T19:38:28.651Z,5.06
2022-11-30T19:40:55.899Z,5.08
2022-11-30T19:43:23.261Z,5.07
2022-11-30T19:45:50.332Z,5.07
2022-11-30T19:48:17.456Z,5.09
2022-11-30T19:50:44.492Z,5.10
2022-11-30T19:53:11.568Z,5.06
2022-11-30T19:55:40.492Z,5.08
2022-11-30T19:58:07.589Z,5.08
2022-11-30T20:00:34.550Z,5.09
2022-11-30T20:03:09.783Z,5.08
2022-11-30T20:05:37.973Z,5.10
2022-11-30T20:08:06.038Z,5.11
2022-11-30T20:10:33.587Z,5.11
2022-11-30T20:13:03.388Z,5.07
2022-11-30T20:15:31.614Z,5.05
2022-11-30T20:17:58.897Z,5.05
2022-11-30T20:20:26.267Z,5.07
2022-11-30T20:22:53.554Z,5.05
2022-11-30T20:25:21.430Z,5.03
2022-11-30T20:27:50.024Z,5.03
2022-11-30T20:30:17.639Z,5.04
2022-11-30T20:32:44.761Z,5.01
2022-11-30T20:35:11.962Z,5.03
2022-11-30T20:37:39.062Z,5.02
2022-11-30T20:40:07.437Z,5.03
2022-11-30T20:42:34.536Z,5.03
2022-11-30T20:45:01.751Z,5.03
2022-11-30T20:47:33.383Z,5.01
2022-11-30T20:50:03.066Z,5.00
2022-11-30T20:52:30.434Z,5.01
2022-11-30T20:54:57.980Z,5.00
2022-11-30T20:57:25.126Z,4.98
2022-11-30T20:59:52.283Z,4.98
2022-11-30T21:02:19.615Z,5.00
2022-11-30T21:04:47.220Z,4.99
2022-11-30T21:07:14.776Z,5.00
2022-11-30T21:09:42.016Z,4.97
2022-11-30T21:12:09.312Z,4.99
2022-11-30T21:14:39.553Z,4.98
2022-11-30T21:17:06.740Z,4.98
2022-11-30T21:19:34.029Z,4.97
2022-11-30T21:22:01.389Z,4.95
2022-11-30T21:24:28.838Z,4.95
2022-11-30T21:26:56.374Z,4.95
2022-11-30T21:29:23.519Z,4.94
2022-11-30T21:31:50.826Z,4.90
2022-11-30T21:34:18.660Z,4.99
2022-11-30T21:36:45.964Z,4.94
2022-11-30T21:39:17.424Z,4.95
2022-11-30T21:41:44.679Z,4.93
2022-11-30T21:44:14.402Z,4.92
2022-11-30T21:46:42.809Z,4.90
2022-11-30T21:49:10.107Z,4.90
2022-11-30T21:51:37.350Z,4.89
2022-11-30T21:54:07.055Z,4.88
2022-11-30T21:56:37.509Z,4.88
2022-11-30T21:59:07.442Z,4.83
2022-11-30T22:01:39.878Z,4.90
2022-11-30T22:04:08.625Z,4.86
2022-11-30T22:06:37.615Z,4.84
2022-11-30T22:09:10.432Z,4.85
2022-11-30T22:11:40.033Z,4.84
2022-11-30T22:14:16.078Z,4.86
2022-11-30T22:16:43.864Z,4.84
2022-11-30T22:19:11.245Z,4.86
2022-11-30T22:21:39.010Z,4.82
2022-11-30T22:24:13.882Z,4.81
2022-11-30T22:26:43.039Z,4.78
2022-11-30T22:29:29.461Z,4.80
2022-11-30T22:31:56.628Z,4.84
2022-11-30T22:34:23.746Z,4.79
2022-11-30T22:36:50.875Z,4.81
2022-11-30T22:39:20.691Z,4.79
2022-11-30T22:41:54.629Z,4.76
2022-11-30T22:44:23.401Z,4.78
2022-11-30T22:46:50.625Z,4.76
2022-11-30T22:49:21.586Z,4.75
2022-11-30T22:51:50.342Z,4.74
2022-11-30T22:54:18.662Z,4.73
2022-11-30T22:56:46.836Z,4.71
2022-11-30T22:59:15.188Z,4.70
2022-11-30T23:01:45.640Z,4.66
2022-11-30T23:04:15.559Z,4.68
2022-11-30T23:06:43.808Z,4.66
2022-11-30T23:09:17.195Z,4.63
2022-11-30T23:11:44.940Z,4.61
2022-11-30T23:14:12.744Z,4.60
2022-11-30T23:16:40.983Z,4.60
2022-11-30T23:19:09.468Z,4.58
2022-11-30T23:21:41.509Z,4.56
2022-11-30T23:24:14.117Z,4.54
2022-11-30T23:26:41.799Z,4.53
2022-11-30T23:29:12.261Z,4.50
2022-11-30T23:31:40.631Z,4.48
2022-11-30T23:34:11.233Z,4.48
2022-11-30T23:36:38.842Z,4.46
2022-11-30T23:39:08.650Z,4.41
2022-11-30T23:41:36.144Z,4.36
2022-11-30T23:44:03.921Z,4.37
2022-11-30T23:46:31.201Z,4.37
2022-11-30T23:48:58.633Z,4.37
2022-11-30T23:51:26.431Z,4.37
2022-11-30T23:53:54.156Z,4.34
2022-11-30T23:56:23.535Z,4.34
2022-11-30T23:58:51.712Z,4.30
